Time;durP1;ratioP1;P1;durP2;ratioP2;P2;SDS_P1;SDS_P2;PMS_P1;PMS_P2;Temp;Humidity;BMP_temperature;BMP_pressure;BME280_temperature;BME280_humidity;BME280_pressure;Samples;Min_cycle;Max_cycle;Signal;HPM_P1;HPM_P2
2023/05/25 00:02:17;;;;;;;;;13.67;12.33;;;;;17.61;45.57;101453.31;4995734;28;46380;-54
2023/05/25 00:04:42;;;;;;;;;12.33;11.33;;;;;17.61;45.64;101462.13;4995943;28;45308;-51
2023/05/25 00:07:07;;;;;;;;;14.33;12.67;;;;;17.60;46.07;101451.59;4978417;28;45462;-56
2023/05/25 00:09:34;;;;;;;;;13.00;12.67;;;;;17.58;45.70;101446.34;4995901;28;45591;-56
2023/05/25 00:11:59;;;;;;;;;12.67;10.67;;;;;17.58;45.75;101441.00;4995776;28;45513;-57
2023/05/25 00:14:25;;;;;;;;;13.33;13.33;;;;;17.55;45.82;101440.31;4995627;28;45506;-56
2023/05/25 00:16:50;;;;;;;;;12.00;12.00;;;;;17.60;45.79;101452.44;4996073;28;45452;-57
2023/05/25 00:19:17;;;;;;;;;14.33;13.00;;;;;17.58;46.00;101446.34;4995958;28;45683;-55
2023/05/25 00:21:44;;;;;;;;;12.33;11.67;;;;;17.58;45.85;101450.81;4995461;28;45435;-57
2023/05/25 00:24:10;;;;;;;;;13.67;11.00;;;;;17.51;45.73;101441.41;4994316;28;45487;-54
2023/05/25 00:26:35;;;;;;;;;14.00;13.00;;;;;17.47;46.00;101435.38;4995740;28;45443;-54
2023/05/25 00:29:02;;;;;;;;;10.67;10.67;;;;;17.36;45.92;101435.94;4995939;28;45478;-55
2023/05/25 00:31:28;;;;;;;;;13.67;11.33;;;;;17.35;46.29;101436.00;4995511;28;46759;-55
2023/05/25 00:33:53;;;;;;;;;12.33;12.00;;;;;17.37;46.19;101442.97;4995984;28;45384;-54
2023/05/25 00:36:19;;;;;;;;;12.67;11.33;;;;;17.27;46.44;101433.72;4995941;28;45460;-58
2023/05/25 00:38:44;;;;;;;;;11.00;11.00;;;;;17.26;46.39;101437.31;4995726;28;45348;-54
2023/05/25 00:41:11;;;;;;;;;11.00;10.33;;;;;17.23;46.62;101432.16;4995355;28;46117;-54
2023/05/25 00:43:36;;;;;;;;;10.67;10.67;;;;;17.28;46.52;101437.25;4977938;28;45503;-52
2023/05/25 00:46:02;;;;;;;;;13.00;12.33;;;;;17.26;46.82;101439.97;4995665;28;48098;-54
2023/05/25 00:48:27;;;;;;;;;11.00;11.00;;;;;17.24;46.96;101433.88;4995797;28;45423;-56
2023/05/25 00:50:58;;;;;;;;;13.00;11.33;;;;;17.25;46.85;101434.72;4995875;28;46235;-53
2023/05/25 00:53:24;;;;;;;;;17.33;12.67;;;;;17.24;47.28;101439.19;4995573;28;45443;-53
2023/05/25 00:56:01;;;;;;;;;14.00;12.33;;;;;17.25;47.37;101448.91;4995561;28;45411;-56
2023/05/25 00:58:29;;;;;;;;;14.33;13.33;;;;;17.15;47.57;101434.34;4995722;28;45688;-55
2023/05/25 01:00:57;;;;;;;;;13.67;13.67;;;;;17.14;47.75;101438.81;4995236;28;46663;-54
2023/05/25 01:03:26;;;;;;;;;15.33;13.67;;;;;17.10;47.91;101444.34;4995361;28;45531;-53
2023/05/25 01:05:53;;;;;;;;;12.33;12.33;;;;;17.09;48.09;101437.31;4977235;28;45404;-55
2023/05/25 01:08:22;;;;;;;;;13.00;13.00;;;;;17.11;48.15;101432.75;4995150;28;45638;-56
2023/05/25 01:10:51;;;;;;;;;14.67;13.67;;;;;17.08;48.42;101443.53;4995280;28;45508;-54
2023/05/25 01:13:18;;;;;;;;;17.67;13.33;;;;;17.05;48.36;101425.94;4995026;28;45349;-56
2023/05/25 01:15:45;;;;;;;;;15.00;12.67;;;;;17.04;48.64;101436.69;4995154;28;45469;-55
2023/05/25 01:18:14;;;;;;;;;14.67;12.00;;;;;16.98;48.41;101428.06;4995067;28;45502;-55
2023/05/25 01:21:11;;;;;;;;;15.00;13.33;;;;;17.02;48.46;101439.41;4995117;28;46658;-54
2023/05/25 01:23:45;;;;;;;;;16.00;12.33;;;;;17.03;48.52;101433.13;4995060;28;45565;-53
2023/05/25 01:26:14;;;;;;;;;12.00;12.00;;;;;17.02;48.73;101436.72;4995123;28;45372;-56
2023/05/25 01:28:45;;;;;;;;;14.00;12.67;;;;;16.95;48.38;101438.84;4995340;28;45348;-55
2023/05/25 01:31:14;;;;;;;;;13.33;12.67;;;;;16.86;49.20;101428.66;4994848;28;46246;-55
2023/05/25 01:33:41;;;;;;;;;16.33;15.33;;;;;16.88;49.25;101426.78;4995290;28;45431;-56
2023/05/25 01:36:07;;;;;;;;;17.33;15.33;;;;;16.89;48.93;101439.13;4989123;28;45475;-53
2023/05/25 01:38:33;;;;;;;;;13.00;12.00;;;;;16.85;48.90;101431.41;4998374;28;45617;-58
2023/05/25 01:40:58;;;;;;;;;15.33;13.00;;;;;16.84;49.43;101440.28;4998239;28;46703;-52
2023/05/25 01:43:24;;;;;;;;;14.67;14.00;;;;;16.83;49.53;101443.88;4998228;28;45481;-57
2023/05/25 01:45:54;;;;;;;;;14.33;14.33;;;;;16.81;49.75;101445.75;4998271;28;45432;-56
2023/05/25 01:49:10;;;;;;;;;15.00;15.00;;;;;16.75;49.51;101445.06;5014156;28;45444;-57
2023/05/25 01:51:42;;;;;;;;;13.67;13.67;;;;;16.73;50.03;101441.63;4918158;28;45552;-55
2023/05/25 01:54:22;;;;;;;;;16.67;14.33;;;;;16.53;50.10;101418.66;4990342;28;45439;-52
2023/05/25 01:56:49;;;;;;;;;19.67;15.00;;;;;16.66;50.39;101444.66;4998269;28;45444;-55
2023/05/25 01:59:20;;;;;;;;;15.67;14.00;;;;;16.63;50.46;101452.75;4996817;28;45410;-54
2023/05/25 02:01:46;;;;;;;;;13.00;13.00;;;;;16.64;50.50;101450.03;4998014;28;45595;-55
2023/05/25 02:04:14;;;;;;;;;14.00;11.67;;;;;16.60;50.58;101440.47;4997599;28;45507;-54
2023/05/25 02:06:39;;;;;;;;;17.33;15.67;;;;;16.60;51.07;101443.13;4998165;28;45473;-53
2023/05/25 02:09:05;;;;;;;;;15.67;14.00;;;;;16.60;50.69;101445.78;4997846;28;45463;-56
2023/05/25 02:11:30;;;;;;;;;12.00;10.67;;;;;16.61;50.27;101450.19;4997318;28;45791;-55
2023/05/25 02:13:55;;;;;;;;;15.00;15.00;;;;;16.51;50.46;101433.81;4997954;28;45456;-54
2023/05/25 02:16:21;;;;;;;;;16.67;14.67;;;;;16.60;50.35;101447.59;4997443;28;49487;-54
2023/05/25 02:18:46;;;;;;;;;15.67;13.33;;;;;16.58;50.44;101455.66;4997883;28;45724;-55
2023/05/25 02:21:11;;;;;;;;;12.33;12.33;;;;;16.48;50.95;101441.91;4997493;28;45477;-56
2023/05/25 02:23:37;;;;;;;;;15.00;15.00;;;;;16.49;50.56;101454.25;4997534;28;45419;-53
2023/05/25 02:26:02;;;;;;;;;14.00;13.00;;;;;16.47;50.48;101453.50;4997892;28;46075;-54
2023/05/25 02:28:27;;;;;;;;;13.00;12.67;;;;;16.44;50.71;101456.28;4997375;28;45515;-53
2023/05/25 02:30:53;;;;;;;;;14.33;12.00;;;;;16.44;51.26;101455.41;4997668;28;46179;-52
2023/05/25 02:33:19;;;;;;;;;13.00;13.00;;;;;16.49;50.64;101466.69;4998080;28;45407;-56
2023/05/25 02:35:45;;;;;;;;;15.33;12.00;;;;;16.52;50.67;101467.41;4997728;28;45466;-52
2023/05/25 02:38:10;;;;;;;;;14.33;13.33;;;;;16.45;50.17;101457.16;4997449;28;45487;-55
2023/05/25 02:40:36;;;;;;;;;14.00;12.00;;;;;16.44;50.10;101464.25;4997484;28;46280;-55
2023/05/25 02:43:01;;;;;;;;;16.00;15.00;;;;;16.44;50.11;101472.22;4997297;28;45490;-55
2023/05/25 02:45:26;;;;;;;;;16.33;14.33;;;;;16.44;49.66;101468.66;4997319;28;45372;-56
2023/05/25 02:47:52;;;;;;;;;16.67;14.00;;;;;16.45;50.65;101483.69;4996467;28;45565;-52
2023/05/25 02:50:17;;;;;;;;;12.00;12.00;;;;;16.41;50.65;101479.44;4996881;28;53181;-51
2023/05/25 02:52:42;;;;;;;;;13.33;13.33;;;;;16.34;51.06;101474.41;4997198;28;45423;-53
2023/05/25 02:55:12;;;;;;;;;15.00;15.00;;;;;16.34;50.51;101479.72;4979176;28;45454;-56
2023/05/25 02:57:37;;;;;;;;;13.00;13.00;;;;;16.27;51.19;101485.38;4997090;28;45674;-55
2023/05/25 03:00:06;;;;;;;;;13.33;12.00;;;;;16.23;50.36;101479.34;4979348;28;48225;-54
2023/05/25 03:02:31;;;;;;;;;15.33;15.33;;;;;16.25;50.62;101482.78;4996888;28;45430;-54
2023/05/25 03:04:57;;;;;;;;;13.67;12.33;;;;;16.25;50.64;101485.44;4997132;28;45427;-55
2023/05/25 03:07:25;;;;;;;;;15.67;14.67;;;;;16.30;51.16;101486.09;4996968;28;45354;-55
2023/05/25 03:09:51;;;;;;;;;13.00;12.33;;;;;16.31;50.96;101489.63;4997125;28;45443;-55
2023/05/25 03:12:16;;;;;;;;;13.00;12.33;;;;;16.32;51.06;101488.69;4996751;28;45402;-52
2023/05/25 03:14:41;;;;;;;;;17.00;13.00;;;;;16.30;50.14;101490.53;4996765;28;46327;-57
2023/05/25 03:17:07;;;;;;;;;17.00;14.67;;;;;16.30;50.12;101494.06;4996588;28;53606;-53
2023/05/25 03:19:32;;;;;;;;;14.33;14.00;;;;;16.25;50.35;101488.09;4996784;28;45568;-54
2023/05/25 03:21:57;;;;;;;;;13.33;11.67;;;;;16.29;50.73;101487.03;4996749;28;45531;-53
2023/05/25 03:24:23;;;;;;;;;12.33;12.33;;;;;16.23;50.49;101492.63;4996685;28;45419;-56
2023/05/25 03:26:48;;;;;;;;;11.00;11.00;;;;;16.24;49.91;101491.69;4996929;28;45705;-53
2023/05/25 03:29:13;;;;;;;;;15.33;12.67;;;;;16.20;50.79;101491.88;4996496;28;52676;-54
2023/05/25 03:31:38;;;;;;;;;12.33;12.33;;;;;16.15;50.25;101488.56;4996329;28;51652;-55
2023/05/25 03:34:05;;;;;;;;;15.67;13.00;;;;;16.06;50.23;101477.44;4997043;28;48906;-54
2023/05/25 03:36:32;;;;;;;;;15.00;14.00;;;;;16.19;50.45;101509.59;4996717;28;45484;-54
2023/05/25 03:38:57;;;;;;;;;12.33;11.67;;;;;16.18;50.02;101510.56;4996416;28;46207;-56
2023/05/25 03:41:23;;;;;;;;;16.00;14.33;;;;;16.10;51.05;101512.69;4996322;28;45497;-52
2023/05/25 03:43:48;;;;;;;;;12.33;12.33;;;;;16.10;50.50;101516.19;4996574;28;45381;-55
2023/05/25 03:46:13;;;;;;;;;12.33;10.33;;;;;16.11;50.24;101519.69;4996182;28;54047;-56
2023/05/25 03:48:39;;;;;;;;;11.33;11.33;;;;;16.02;50.52;101522.75;4996384;28;46126;-56
2023/05/25 03:51:04;;;;;;;;;12.33;12.33;;;;;16.04;50.99;101529.72;4978845;28;45417;-57
2023/05/25 03:53:30;;;;;;;;;9.00;9.00;;;;;16.00;50.41;101514.84;4996348;28;45391;-55
2023/05/25 03:55:55;;;;;;;;;13.67;13.33;;;;;15.98;50.64;101515.84;4996261;28;45405;-54
2023/05/25 03:58:21;;;;;;;;;15.67;12.00;;;;;16.02;50.19;101523.63;4996031;28;46169;-52
2023/05/25 04:00:50;;;;;;;;;13.67;13.67;;;;;16.00;50.21;101516.66;4996108;28;45340;-54
2023/05/25 04:03:15;;;;;;;;;13.67;13.67;;;;;15.96;50.88;101528.31;4996292;28;45423;-56
2023/05/25 04:05:41;;;;;;;;;14.67;12.33;;;;;15.93;51.17;101521.34;4996184;28;45504;-56
2023/05/25 04:08:07;;;;;;;;;10.33;10.33;;;;;15.89;51.26;101525.06;4978492;28;45476;-54
2023/05/25 04:10:32;;;;;;;;;14.33;12.33;;;;;15.87;50.52;101519.81;4996274;28;45389;-56
2023/05/25 04:12:58;;;;;;;;;11.67;11.67;;;;;15.81;51.11;101517.44;4995991;28;45411;-56
2023/05/25 04:15:24;;;;;;;;;12.33;12.33;;;;;15.82;51.35;101521.81;4978388;28;45631;-52
2023/05/25 04:17:49;;;;;;;;;13.67;13.67;;;;;15.75;50.99;101511.53;4995780;28;46619;-56
2023/05/25 04:20:14;;;;;;;;;14.33;14.33;;;;;15.79;51.32;101521.09;4995972;28;45356;-56
2023/05/25 04:22:40;;;;;;;;;13.33;12.33;;;;;15.75;51.22;101516.84;4996090;28;45879;-56
2023/05/25 04:25:06;;;;;;;;;15.67;13.00;;;;;15.74;51.95;101517.75;4995924;28;45372;-54
2023/05/25 04:27:32;;;;;;;;;13.67;13.00;;;;;15.67;52.09;101517.13;4995698;28;46307;-56
2023/05/25 04:29:57;;;;;;;;;14.33;13.00;;;;;15.68;51.99;101522.38;4995876;28;45570;-55
2023/05/25 04:32:22;;;;;;;;;13.00;12.67;;;;;15.74;51.40;101525.72;4996142;28;45499;-56
2023/05/25 04:34:48;;;;;;;;;14.67;12.00;;;;;15.66;51.54;101518.03;4996568;28;45638;-55
2023/05/25 04:37:13;;;;;;;;;15.67;13.00;;;;;15.64;51.26;101519.91;4995723;28;45431;-53
2023/05/25 04:39:39;;;;;;;;;14.33;12.67;;;;;15.63;51.61;101518.19;4995745;28;45498;-54
2023/05/25 04:42:05;;;;;;;;;18.67;17.33;;;;;15.61;51.90;101523.56;4995702;28;45494;-52
2023/05/25 04:44:31;;;;;;;;;16.67;15.67;;;;;15.60;51.76;101531.56;4995686;28;45551;-54
2023/05/25 04:46:58;;;;;;;;;12.33;11.67;;;;;15.56;51.92;101532.63;4995411;28;46549;-54
2023/05/25 04:49:25;;;;;;;;;13.33;11.00;;;;;15.52;52.44;101536.31;4995571;28;45394;-54
2023/05/25 04:51:50;;;;;;;;;15.33;12.67;;;;;15.52;52.45;101529.22;4995551;28;45427;-54
2023/05/25 04:54:16;;;;;;;;;16.00;16.00;;;;;15.53;52.16;101535.38;4995331;28;45441;-55
2023/05/25 04:56:41;;;;;;;;;17.00;13.67;;;;;15.57;51.97;101534.34;4995509;28;46222;-52
2023/05/25 04:59:07;;;;;;;;;14.67;14.67;;;;;15.54;52.39;101542.44;4995324;28;45381;-55
2023/05/25 05:01:33;;;;;;;;;14.67;14.33;;;;;15.45;51.64;101531.28;4995665;28;45621;-54
2023/05/25 05:03:59;;;;;;;;;16.00;14.67;;;;;15.46;52.34;101535.66;4995427;28;45523;-51
2023/05/25 05:06:24;;;;;;;;;16.00;15.33;;;;;15.50;51.73;101539.06;4995040;28;45361;-56
2023/05/25 05:08:50;;;;;;;;;17.00;17.00;;;;;15.48;53.03;101540.03;4995234;28;45475;-55
2023/05/25 05:11:15;;;;;;;;;11.33;11.33;;;;;15.40;52.24;101522.66;4996899;28;45385;-53
2023/05/25 05:13:41;;;;;;;;;20.00;17.67;;;;;15.48;52.46;101540.91;4998794;28;45580;-56
2023/05/25 05:16:06;;;;;;;;;13.33;12.00;;;;;15.46;52.27;101551.56;4998357;28;47705;-54
2023/05/25 05:18:31;;;;;;;;;13.33;11.33;;;;;15.46;51.96;101548.03;4998629;28;45456;-56
2023/05/25 05:20:57;;;;;;;;;14.67;13.00;;;;;15.50;52.29;101565.56;4998781;28;45436;-57
2023/05/25 05:23:22;;;;;;;;;14.00;14.00;;;;;15.52;52.38;101563.69;4998559;28;45529;-57
2023/05/25 05:25:47;;;;;;;;;13.67;13.67;;;;;15.48;51.71;101554.16;4980976;28;47551;-55
2023/05/25 05:28:13;;;;;;;;;13.00;13.00;;;;;15.56;52.42;101567.97;4998438;28;45380;-53
2023/05/25 05:30:38;;;;;;;;;14.33;13.67;;;;;15.54;52.39;101567.16;4998589;28;45383;-55
2023/05/25 05:33:03;;;;;;;;;15.33;14.00;;;;;15.52;51.55;101573.44;4998675;28;48609;-56
2023/05/25 05:35:28;;;;;;;;;17.33;14.33;;;;;15.50;52.17;101568.22;4998353;28;45500;-57
2023/05/25 05:37:54;;;;;;;;;15.00;12.67;;;;;15.57;51.73;101566.16;4998515;28;45487;-57
2023/05/25 05:40:19;;;;;;;;;17.00;14.33;;;;;15.53;50.77;101562.78;4998558;28;45471;-56
2023/05/25 05:42:45;;;;;;;;;15.33;13.00;;;;;15.52;51.72;101568.13;4998491;28;45567;-53
2023/05/25 05:45:10;;;;;;;;;12.67;12.00;;;;;15.51;51.98;101571.72;4997914;28;45984;-56
2023/05/25 05:47:35;;;;;;;;;15.00;13.33;;;;;15.48;51.68;101570.06;4998086;28;49635;-55
2023/05/25 05:50:01;;;;;;;;;14.33;12.67;;;;;15.55;51.40;101574.16;4998355;28;45463;-52
2023/05/25 05:52:26;;;;;;;;;14.50;14.50;;;;;15.50;50.42;101570.88;4998346;28;45397;-55
2023/05/25 05:54:52;;;;;;;;;17.33;14.00;;;;;15.56;51.54;101585.66;4997898;28;45442;-53
2023/05/25 05:57:17;;;;;;;;;17.33;14.00;;;;;15.52;51.60;101584.91;4998034;28;45593;-56
2023/05/25 05:59:42;;;;;;;;;15.33;12.67;;;;;15.50;50.77;101588.53;4998044;28;45359;-54
2023/05/25 06:02:08;;;;;;;;;12.00;11.00;;;;;15.55;51.63;101590.06;4998040;28;45646;-55
2023/05/25 06:04:33;;;;;;;;;12.67;11.33;;;;;15.59;51.00;101591.69;4997689;28;45447;-58
2023/05/25 06:06:58;;;;;;;;;13.67;12.67;;;;;15.53;50.71;101586.66;4998177;28;45524;-56
2023/05/25 06:09:25;;;;;;;;;10.33;10.33;;;;;15.64;50.52;101595.03;4997837;28;45344;-56
2023/05/25 06:11:51;;;;;;;;;15.33;12.33;;;;;15.68;51.16;101595.75;4998120;28;45498;-56
2023/05/25 06:14:16;;;;;;;;;15.33;11.67;;;;;15.68;50.76;101586.03;4997341;28;45439;-54
2023/05/25 06:16:42;;;;;;;;;12.00;12.00;;;;;15.70;49.77;101593.09;4997800;28;45488;-55
2023/05/25 06:19:07;;;;;;;;;15.00;12.67;;;;;15.70;49.75;101598.41;4997719;28;45464;-55
2023/05/25 06:21:33;;;;;;;;;13.67;11.67;;;;;15.70;50.02;101598.41;4997749;28;45577;-54
2023/05/25 06:23:58;;;;;;;;;13.00;13.00;;;;;15.71;49.40;101603.63;4979641;28;45816;-55
2023/05/25 06:26:23;;;;;;;;;13.00;13.00;;;;;15.71;49.89;101600.09;4997364;28;48611;-56
2023/05/25 06:28:49;;;;;;;;;12.67;10.00;;;;;15.66;49.65;101590.53;4997810;28;45341;-57
2023/05/25 06:31:15;;;;;;;;;13.33;12.00;;;;;15.78;50.14;101607.75;4997533;28;45586;-55
2023/05/25 06:33:40;;;;;;;;;14.67;12.67;;;;;15.82;49.72;101605.84;4997701;28;46721;-54
2023/05/25 06:36:06;;;;;;;;;12.33;12.33;;;;;15.83;50.08;101604.94;4996875;28;45410;-54
2023/05/25 06:38:32;;;;;;;;;11.33;8.00;;;;;15.84;49.12;101609.28;4979960;28;45427;-55
2023/05/25 06:41:01;;;;;;;;;14.33;13.33;;;;;15.87;49.42;101607.38;4997413;28;45357;-53
2023/05/25 06:43:27;;;;;;;;;13.67;13.67;;;;;15.85;49.46;101590.69;4979399;28;46394;-53
2023/05/25 06:45:52;;;;;;;;;15.00;14.00;;;;;15.85;49.68;101592.44;4997156;28;45527;-55
2023/05/25 06:48:17;;;;;;;;;11.67;11.67;;;;;15.97;49.10;101597.25;4997485;28;45394;-55
2023/05/25 06:50:44;;;;;;;;;12.67;12.67;;;;;16.03;48.89;101602.28;4997168;28;45388;-56
2023/05/25 06:53:10;;;;;;;;;14.67;14.67;;;;;16.03;49.08;101602.28;4996958;28;46081;-55
2023/05/25 06:55:35;;;;;;;;;11.00;9.00;;;;;16.09;49.08;101604.69;4997096;28;45464;-54
2023/05/25 06:58:01;;;;;;;;;13.00;10.67;;;;;16.10;48.81;101602.91;4997095;28;45412;-55
2023/05/25 07:00:26;;;;;;;;;11.33;10.67;;;;;16.13;48.35;101598.31;4996878;28;45448;-52
2023/05/25 07:02:51;;;;;;;;;11.00;11.00;;;;;16.17;48.88;101603.50;4997098;28;45409;-53
2023/05/25 07:05:17;;;;;;;;;12.33;9.33;;;;;16.23;48.51;101603.25;4996880;28;47409;-55
2023/05/25 07:07:42;;;;;;;;;10.67;10.67;;;;;16.22;47.76;101596.19;4996995;28;45562;-55
2023/05/25 07:10:08;;;;;;;;;14.33;10.33;;;;;16.23;47.97;101601.47;4996907;28;48940;-56
2023/05/25 07:12:33;;;;;;;;;11.67;10.67;;;;;16.27;48.50;101603.03;4996810;28;46300;-56
2023/05/25 07:14:58;;;;;;;;;12.33;10.00;;;;;16.26;48.16;101596.00;4996837;28;45462;-55
2023/05/25 07:17:24;;;;;;;;;11.00;11.00;;;;;16.28;48.39;101601.25;4996872;28;45461;-54
2023/05/25 07:19:49;;;;;;;;;11.67;11.67;;;;;16.28;47.99;101598.59;4996948;28;45375;-56
2023/05/25 07:22:17;;;;;;;;;30.00;29.67;;;;;16.32;47.60;101603.69;4996802;28;45658;-56
2023/05/25 07:24:45;;;;;;;;;10.67;10.00;;;;;16.33;47.80;101608.09;4996409;28;45449;-55
2023/05/25 07:27:11;;;;;;;;;8.00;8.00;;;;;16.36;47.80;101609.72;4996821;28;45244;-52
2023/05/25 07:29:37;;;;;;;;;10.00;9.67;;;;;16.38;47.64;101605.22;4996499;28;45545;-56
2023/05/25 07:32:03;;;;;;;;;12.33;12.33;;;;;16.44;47.53;101607.63;4996700;28;46781;-56
2023/05/25 07:34:28;;;;;;;;;13.33;10.33;;;;;16.50;47.50;101606.50;4996344;28;45526;-55
2023/05/25 07:36:53;;;;;;;;;11.67;11.33;;;;;16.46;46.51;101603.09;4996932;28;45502;-54
2023/05/25 07:39:18;;;;;;;;;11.67;9.33;;;;;16.51;46.74;101606.41;4996530;28;45415;-54
2023/05/25 07:41:44;;;;;;;;;12.33;11.00;;;;;16.48;46.39;101603.91;4996329;28;46423;-54
2023/05/25 07:44:09;;;;;;;;;12.67;9.67;;;;;16.55;46.71;101612.47;4996232;28;51791;-53
2023/05/25 07:46:35;;;;;;;;;8.00;8.00;;;;;16.57;45.98;101603.47;4996698;28;45464;-56
2023/05/25 07:49:02;;;;;;;;;9.00;8.00;;;;;16.62;45.91;101594.47;4996502;28;45427;-57
2023/05/25 07:51:28;;;;;;;;;12.33;10.00;;;;;16.64;45.33;101598.78;4996277;28;45511;-54
2023/05/25 07:53:55;;;;;;;;;7.67;7.67;;;;;16.69;44.56;101606.53;4995647;28;45392;-56
2023/05/25 07:56:21;;;;;;;;;9.00;9.00;;;;;16.51;45.09;101571.88;4996312;28;45385;-55
2023/05/25 07:58:46;;;;;;;;;16.67;15.33;;;;;16.69;45.04;101612.72;4996208;28;45567;-55
2023/05/25 08:01:11;;;;;;;;;13.33;9.00;;;;;16.69;45.29;101602.09;4996082;28;45591;-57
2023/05/25 08:03:37;;;;;;;;;8.00;7.67;;;;;16.71;44.91;101607.31;4996322;28;45412;-54
2023/05/25 08:06:02;;;;;;;;;9.67;9.67;;;;;16.71;45.26;101605.53;4996108;28;45505;-52
2023/05/25 08:08:28;;;;;;;;;8.00;7.33;;;;;16.72;45.31;101604.59;4996175;28;45634;-53
2023/05/25 08:10:53;;;;;;;;;7.67;6.67;;;;;16.68;45.32;101600.34;4996015;28;45628;-52
2023/05/25 08:13:18;;;;;;;;;8.67;7.33;;;;;16.72;44.75;101609.06;4996083;28;45476;-54
2023/05/25 08:15:44;;;;;;;;;7.00;6.00;;;;;16.73;45.08;101602.81;4996154;28;45402;-56
2023/05/25 08:18:09;;;;;;;;;8.00;7.00;;;;;16.74;45.09;101601.91;4995933;28;45566;-55
2023/05/25 08:20:35;;;;;;;;;7.67;6.00;;;;;16.67;44.99;101592.47;4995876;28;45454;-56
2023/05/25 08:23:00;;;;;;;;;6.00;6.00;;;;;16.81;45.72;101616.63;4995739;28;46182;-54
2023/05/25 08:25:26;;;;;;;;;7.00;6.00;;;;;16.79;43.88;101618.50;4995993;28;45486;-54
2023/05/25 08:27:51;;;;;;;;;6.33;5.33;;;;;16.83;44.18;101617.44;4995745;28;45586;-54
2023/05/25 08:30:17;;;;;;;;;6.33;4.33;;;;;16.81;43.66;101605.16;4995831;28;45508;-55
2023/05/25 08:32:42;;;;;;;;;6.33;6.33;;;;;16.85;44.24;101596.97;4995652;28;45466;-57
2023/05/25 08:35:08;;;;;;;;;5.00;5.00;;;;;16.90;43.94;101602.06;4996213;28;45459;-57
2023/05/25 08:37:34;;;;;;;;;7.00;7.00;;;;;16.93;44.33;101596.63;4996050;28;45590;-54
2023/05/25 08:40:01;;;;;;;;;8.67;7.67;;;;;16.99;44.93;101602.50;4995271;28;45912;-56
2023/05/25 08:42:27;;;;;;;;;7.00;7.00;;;;;17.02;44.48;101593.53;4995708;28;45479;-57
2023/05/25 08:44:52;;;;;;;;;8.33;8.33;;;;;17.09;43.54;101597.66;4994806;28;45452;-55
2023/05/25 08:47:21;;;;;;;;;6.33;5.33;;;;;17.13;44.46;101614.31;4995037;28;45429;-57
2023/05/25 08:49:47;;;;;;;;;7.67;7.67;;;;;17.14;44.31;101592.97;4995590;28;45466;-55
2023/05/25 08:52:13;;;;;;;;;9.33;6.67;;;;;17.16;43.17;101600.88;4995360;28;45360;-55
2023/05/25 08:54:42;;;;;;;;;6.33;5.33;;;;;17.19;42.39;101622.88;4995552;28;45511;-53
2023/05/25 08:57:19;;;;;;;;;5.00;4.00;;;;;17.25;42.69;101628.81;4995423;28;45385;-57
2023/05/25 08:59:56;;;;;;;;;4.33;4.33;;;;;17.26;41.39;101612.81;4995196;28;45428;-51
2023/05/25 09:02:37;;;;;;;;;7.00;5.00;;;;;17.29;41.45;101610.00;4995268;28;45451;-57
2023/05/25 09:05:03;;;;;;;;;4.67;4.00;;;;;17.32;41.26;101628.44;4995373;28;45528;-54
2023/05/25 09:07:30;;;;;;;;;5.33;5.33;;;;;17.31;40.78;101617.91;4995356;28;45603;-57
2023/05/25 09:09:56;;;;;;;;;5.00;4.00;;;;;17.31;41.05;101616.09;4995204;28;45529;-54
2023/05/25 09:12:22;;;;;;;;;7.00;6.33;;;;;17.30;41.18;101595.78;4995113;28;45459;-53
2023/05/25 09:14:48;;;;;;;;;5.00;5.00;;;;;17.36;40.69;101616.75;4995345;28;45425;-54
2023/05/25 09:17:15;;;;;;;;;6.33;6.00;;;;;17.40;40.97;101610.34;4995073;28;45442;-54
2023/05/25 09:19:40;;;;;;;;;5.00;5.00;;;;;17.40;41.00;101610.34;4995041;28;46255;-54
2023/05/25 09:22:06;;;;;;;;;10.33;7.00;;;;;17.45;41.52;101599.50;4995319;28;45455;-55
2023/05/25 09:24:32;;;;;;;;;6.67;6.67;;;;;17.49;40.66;101605.50;4995038;28;45476;-57
2023/05/25 09:26:58;;;;;;;;;5.00;5.00;;;;;17.49;40.59;101598.41;4995243;28;45586;-55
2023/05/25 09:29:25;;;;;;;;;5.00;5.00;;;;;17.55;40.24;101600.78;4994680;28;45531;-58
2023/05/25 09:31:50;;;;;;;;;8.00;8.00;;;;;17.55;40.00;101603.44;4995183;28;45550;-53
2023/05/25 09:34:16;;;;;;;;;4.67;4.33;;;;;17.61;39.66;101603.13;4995463;28;45472;-56
2023/05/25 09:36:41;;;;;;;;;4.00;4.00;;;;;17.58;39.07;101597.97;4994430;28;58649;-55
2023/05/25 09:39:10;;;;;;;;;5.67;4.67;;;;;17.55;39.42;101571.50;4994923;28;45797;-55
2023/05/25 09:41:42;;;;;;;;;4.00;4.00;;;;;17.58;38.57;101582.00;4977194;28;45395;-57
2023/05/25 09:44:08;;;;;;;;;5.00;4.00;;;;;17.71;39.36;101592.06;4995023;28;45441;-56
2023/05/25 09:46:37;;;;;;;;;4.67;4.33;;;;;17.72;39.07;101597.28;4995118;28;45665;-52
2023/05/25 09:49:06;;;;;;;;;9.67;8.67;;;;;17.79;39.20;101613.84;4994630;28;46177;-57
2023/05/25 09:51:32;;;;;;;;;13.33;12.00;;;;;17.80;38.38;101603.13;4994585;28;45665;-57
2023/05/25 09:54:02;;;;;;;;;5.00;5.00;;;;;17.80;38.72;101603.13;4994568;28;45439;-55
2023/05/25 09:56:31;;;;;;;;;6.00;5.67;;;;;17.79;38.91;101600.53;4995116;28;45293;-56
2023/05/25 09:58:57;;;;;;;;;6.00;6.00;;;;;17.83;39.20;101605.63;4997603;28;46029;-57
2023/05/25 10:01:23;;;;;;;;;5.00;5.00;;;;;17.88;40.01;101606.25;4997894;28;45437;-53
2023/05/25 10:03:49;;;;;;;;;6.33;5.00;;;;;17.93;38.95;101605.19;4997782;28;45357;-56
2023/05/25 10:06:16;;;;;;;;;6.33;6.33;;;;;17.96;39.44;101607.69;4997207;28;45416;-56
2023/05/25 10:08:46;;;;;;;;;7.00;5.67;;;;;18.02;39.07;101610.88;4979878;28;46851;-55
2023/05/25 10:11:15;;;;;;;;;5.67;5.67;;;;;18.03;38.46;101609.09;4997579;28;45418;-57
2023/05/25 10:13:44;;;;;;;;;8.67;7.67;;;;;18.06;39.45;101620.44;4997601;28;45452;-56
2023/05/25 10:16:16;;;;;;;;;7.33;6.00;;;;;18.14;39.53;101619.22;4997381;28;45420;-56
2023/05/25 10:18:59;;;;;;;;;7.33;5.00;;;;;18.13;39.16;101621.00;4997257;28;45410;-56
2023/05/25 10:21:27;;;;;;;;;3.67;3.67;;;;;18.14;37.35;101617.41;4997206;28;45387;-57
2023/05/25 10:24:00;;;;;;;;;4.33;4.33;;;;;18.01;37.38;101581.69;4997511;28;45405;-56
2023/05/25 10:26:27;;;;;;;;;8.33;5.67;;;;;18.19;37.44;101619.81;4997579;28;45495;-55
2023/05/25 10:29:00;;;;;;;;;8.00;8.00;;;;;18.17;37.34;101609.25;4997328;28;45474;-56
2023/05/25 10:31:28;;;;;;;;;5.00;5.00;;;;;18.13;38.14;101602.34;4997020;28;45349;-52
2023/05/25 10:33:54;;;;;;;;;5.00;4.00;;;;;18.23;38.71;101627.56;4980358;28;45418;-56
2023/05/25 10:36:21;;;;;;;;;5.00;5.00;;;;;18.27;39.61;101623.84;4997201;28;45503;-56
2023/05/25 10:38:49;;;;;;;;;4.00;4.00;;;;;18.30;39.59;101615.69;4997158;28;45506;-58
2023/05/25 10:41:15;;;;;;;;;7.00;5.67;;;;;18.31;39.46;101612.06;4996983;28;45380;-56
2023/05/25 10:43:41;;;;;;;;;5.33;5.33;;;;;18.31;39.82;101604.06;4996710;28;49878;-54
2023/05/25 10:46:07;;;;;;;;;6.00;6.00;;;;;18.40;39.26;101613.38;4997186;28;45554;-54
2023/05/25 10:48:37;;;;;;;;;6.67;6.67;;;;;18.42;39.63;101610.66;4996884;28;46470;-55
2023/05/25 10:51:03;;;;;;;;;6.00;4.67;;;;;18.47;39.16;101621.94;4997085;28;45429;-55
2023/05/25 10:53:28;;;;;;;;;16.67;14.33;;;;;18.51;39.49;101620.81;4978919;28;45377;-55
2023/05/25 10:55:57;;;;;;;;;7.33;6.33;;;;;18.55;39.53;101620.59;4979075;28;45461;-56
2023/05/25 10:58:25;;;;;;;;;6.67;6.00;;;;;18.54;38.84;101613.53;4979115;28;47664;-52
2023/05/25 11:00:58;;;;;;;;;5.00;5.00;;;;;18.58;38.61;101616.03;4996366;28;45692;-53
2023/05/25 11:03:45;;;;;;;;;4.33;4.33;;;;;18.63;38.82;101604.19;4996914;28;45436;-55
2023/05/25 11:06:15;;;;;;;;;4.67;4.67;;;;;18.66;38.89;101609.34;4996401;28;45429;-57
2023/05/25 11:08:57;;;;;;;;;5.33;5.33;;;;;18.68;38.42;101607.47;4995467;28;46224;-55
2023/05/25 11:11:41;;;;;;;;;7.00;5.00;;;;;18.72;37.97;101609.03;4996413;28;45444;-55
2023/05/25 11:14:20;;;;;;;;;5.00;5.00;;;;;18.73;38.47;101620.56;4996351;28;45494;-57